createdAt,value
2023-02-11T00:01:22.165Z,27.96
2023-02-11T00:03:48.567Z,28.07
2023-02-11T00:06:14.975Z,27.80
2023-02-11T00:08:41.384Z,28.49
2023-02-11T00:11:07.756Z,27.47
2023-02-11T00:13:34.162Z,28.22
2023-02-11T00:16:00.564Z,27.95
2023-02-11T00:18:26.974Z,28.41
2023-02-11T00:20:53.340Z,28.76
2023-02-11T00:23:19.690Z,28.61
2023-02-11T00:25:46.051Z,28.50
2023-02-11T00:28:12.500Z,29.04
2023-02-11T00:30:38.997Z,28.81
2023-02-11T00:33:05.450Z,28.36
2023-02-11T00:35:31.806Z,30.28
2023-02-11T00:37:58.242Z,29.03
2023-02-11T00:40:24.605Z,29.74
2023-02-11T00:42:51.024Z,30.30
2023-02-11T00:45:17.394Z,30.55
2023-02-11T00:47:43.781Z,30.73
2023-02-11T00:50:10.211Z,30.29
2023-02-11T00:52:36.615Z,31.18
2023-02-11T00:55:02.989Z,30.47
2023-02-11T00:57:29.388Z,29.87
2023-02-11T00:59:55.744Z,30.39
2023-02-11T01:02:22.095Z,30.41
2023-02-11T01:04:48.553Z,30.62
2023-02-11T01:07:14.937Z,31.62
2023-02-11T01:09:41.344Z,30.20
2023-02-11T01:12:07.773Z,31.51
2023-02-11T01:14:34.196Z,30.80
2023-02-11T01:17:00.538Z,31.06
2023-02-11T01:19:26.936Z,30.66
2023-02-11T01:21:53.294Z,29.94
2023-02-11T01:24:19.655Z,30.30
2023-02-11T01:26:46.037Z,29.41
2023-02-11T01:29:12.426Z,29.52
2023-02-11T01:31:38.944Z,29.49
2023-02-11T01:34:05.450Z,29.31
2023-02-11T01:36:31.884Z,28.98
2023-02-11T01:38:58.247Z,28.54
2023-02-11T01:41:24.641Z,28.74
2023-02-11T01:43:50.992Z,29.23
2023-02-11T01:46:17.477Z,30.01
2023-02-11T01:48:43.902Z,29.41
2023-02-11T01:51:10.300Z,29.27
2023-02-11T01:53:36.667Z,28.92
2023-02-11T01:56:03.055Z,29.92
2023-02-11T01:58:30.524Z,30.39
2023-02-11T02:00:56.874Z,32.26
2023-02-11T02:03:23.321Z,32.64
2023-02-11T02:05:49.921Z,32.84
2023-02-11T02:08:16.454Z,33.91
2023-02-11T02:10:42.842Z,34.70
2023-02-11T02:13:09.237Z,35.09
2023-02-11T02:15:35.599Z,35.54
2023-02-11T02:18:01.955Z,36.22
2023-02-11T02:20:28.360Z,36.99
2023-02-11T02:22:54.728Z,38.12
2023-02-11T02:25:21.116Z,42.00
2023-02-11T02:27:47.491Z,43.77
2023-02-11T02:30:13.886Z,43.81
2023-02-11T02:32:40.243Z,44.43
2023-02-11T02:35:06.674Z,45.60
2023-02-11T02:37:33.075Z,45.53
2023-02-11T02:39:59.435Z,43.28
2023-02-11T02:42:25.821Z,42.32
2023-02-11T02:44:52.249Z,41.23
2023-02-11T02:47:18.654Z,39.42
2023-02-11T02:49:45.012Z,39.44
2023-02-11T02:52:11.402Z,39.52
2023-02-11T02:54:37.801Z,38.47
2023-02-11T02:57:04.150Z,36.22
2023-02-11T02:59:30.538Z,35.43
2023-02-11T03:01:56.901Z,36.07
2023-02-11T03:04:23.247Z,36.16
2023-02-11T03:06:49.623Z,36.36
2023-02-11T03:09:15.981Z,37.11
2023-02-11T03:11:42.370Z,38.29
2023-02-11T03:14:08.788Z,37.22
2023-02-11T03:16:35.195Z,36.10
2023-02-11T03:19:01.616Z,37.72
2023-02-11T03:21:28.016Z,37.03
2023-02-11T03:23:54.375Z,36.35
2023-02-11T03:26:20.720Z,36.30
2023-02-11T03:28:47.082Z,36.43
2023-02-11T03:31:13.597Z,36.43
2023-02-11T03:33:40.019Z,36.21
2023-02-11T03:36:06.380Z,36.04
2023-02-11T03:38:32.779Z,35.47
2023-02-11T03:40:59.141Z,34.03
2023-02-11T03:43:25.524Z,35.01
2023-02-11T03:45:52.327Z,34.52
2023-02-11T03:48:18.985Z,34.32
2023-02-11T03:50:45.388Z,33.86
2023-02-11T03:53:11.783Z,32.85
2023-02-11T03:55:38.151Z,33.94
2023-02-11T03:58:04.542Z,33.92
2023-02-11T04:00:30.903Z,34.09
2023-02-11T04:02:57.311Z,32.87
2023-02-11T04:05:23.718Z,33.18
2023-02-11T04:07:50.075Z,32.63
2023-02-11T04:10:16.454Z,32.99
2023-02-11T04:12:42.852Z,32.26
2023-02-11T04:15:09.211Z,33.34
2023-02-11T04:17:35.647Z,33.94
2023-02-11T04:20:02.067Z,34.57
2023-02-11T04:22:28.458Z,34.26
2023-02-11T04:24:54.860Z,35.34
2023-02-11T04:27:21.261Z,33.95
2023-02-11T04:29:47.611Z,34.09
2023-02-11T04:32:13.987Z,34.89
2023-02-11T04:34:40.429Z,34.01
2023-02-11T04:37:06.819Z,34.17
2023-02-11T04:39:33.230Z,33.71
2023-02-11T04:41:59.600Z,34.75
2023-02-11T04:44:25.946Z,33.41
2023-02-11T04:46:52.299Z,33.36
2023-02-11T04:49:18.644Z,32.49
2023-02-11T04:51:46.510Z,33.09
2023-02-11T04:54:14.634Z,32.46
2023-02-11T04:56:41.032Z,32.65
2023-02-11T04:59:07.387Z,32.74
2023-02-11T05:01:33.835Z,31.99
2023-02-11T05:04:00.291Z,32.30
2023-02-11T05:06:26.716Z,33.23
2023-02-11T05:08:53.087Z,34.81
2023-02-11T05:11:19.449Z,35.94
2023-02-11T05:13:45.863Z,36.27
2023-02-11T05:16:12.266Z,35.68
2023-02-11T05:18:38.637Z,34.00
2023-02-11T05:21:05.023Z,35.82
2023-02-11T05:23:31.380Z,34.68
2023-02-11T05:25:57.754Z,35.29
2023-02-11T05:28:24.174Z,34.93
2023-02-11T05:30:50.577Z,34.41
2023-02-11T05:33:16.960Z,33.34
2023-02-11T05:35:43.339Z,34.17
2023-02-11T05:38:09.714Z,34.40
2023-02-11T05:40:36.064Z,34.40
2023-02-11T05:43:02.448Z,34.04
2023-02-11T05:45:28.864Z,33.43
2023-02-11T05:47:55.252Z,32.94
2023-02-11T05:50:21.616Z,32.92
2023-02-11T05:52:48.007Z,33.53
2023-02-11T05:55:14.480Z,33.33
2023-02-11T05:57:40.875Z,32.61
2023-02-11T06:00:07.246Z,32.90
2023-02-11T06:02:33.613Z,33.01
2023-02-11T06:05:00.056Z,34.45
2023-02-11T06:07:26.479Z,34.60
2023-02-11T06:09:52.844Z,34.91
2023-02-11T06:12:19.182Z,34.78
2023-02-11T06:14:45.544Z,34.24
2023-02-11T06:17:13.971Z,35.34
2023-02-11T06:19:41.682Z,35.84
2023-02-11T06:22:08.122Z,37.18
2023-02-11T06:24:58.481Z,36.58
2023-02-11T06:27:20.967Z,37.61
2023-02-11T06:29:47.306Z,37.09
2023-02-11T06:32:36.989Z,35.65
2023-02-11T06:35:00.046Z,35.09
2023-02-11T06:37:26.400Z,34.13
2023-02-11T06:39:52.758Z,34.44
2023-02-11T06:42:19.124Z,34.23
2023-02-11T06:44:45.513Z,33.32
2023-02-11T06:47:11.914Z,33.65
2023-02-11T06:49:38.327Z,32.91
2023-02-11T06:52:04.712Z,34.49
2023-02-11T06:54:31.077Z,34.21
2023-02-11T06:56:57.474Z,33.56
2023-02-11T06:59:23.830Z,32.79
2023-02-11T07:01:50.249Z,33.50
2023-02-11T07:04:16.615Z,35.18
2023-02-11T07:06:42.963Z,35.83
2023-02-11T07:09:09.364Z,36.13
2023-02-11T07:11:35.725Z,35.35
2023-02-11T07:14:02.136Z,37.10
2023-02-11T07:16:28.573Z,37.29
2023-02-11T07:18:55.027Z,38.75
2023-02-11T07:21:21.434Z,39.58
2023-02-11T07:23:47.795Z,38.88
2023-02-11T07:26:14.192Z,37.23
2023-02-11T07:28:40.596Z,35.36
2023-02-11T07:31:07.107Z,36.63
2023-02-11T07:33:33.588Z,37.70
2023-02-11T07:35:59.955Z,37.86
2023-02-11T07:38:26.355Z,37.55
2023-02-11T07:40:52.707Z,38.48
2023-02-11T07:43:19.097Z,39.39
2023-02-11T07:45:45.456Z,38.03
2023-02-11T07:48:11.794Z,37.80
2023-02-11T07:50:38.204Z,37.77
2023-02-11T07:53:04.573Z,36.70
2023-02-11T07:55:30.972Z,36.40
2023-02-11T07:57:57.339Z,36.75
2023-02-11T08:00:23.709Z,38.62
2023-02-11T08:02:50.065Z,40.77
2023-02-11T08:05:16.457Z,41.36
2023-02-11T08:07:42.859Z,43.29
2023-02-11T08:10:09.227Z,42.50
2023-02-11T08:12:35.589Z,41.39
2023-02-11T08:15:01.979Z,40.27
2023-02-11T08:17:28.355Z,39.82
2023-02-11T08:19:54.740Z,39.01
2023-02-11T08:22:21.092Z,38.45
2023-02-11T08:24:47.496Z,39.54
2023-02-11T08:27:13.907Z,38.56
2023-02-11T08:29:40.274Z,38.21
2023-02-11T08:32:06.690Z,40.85
2023-02-11T08:34:33.115Z,40.01
2023-02-11T08:36:59.488Z,41.60
2023-02-11T08:39:25.828Z,42.75
2023-02-11T08:41:52.177Z,43.41
2023-02-11T08:44:18.607Z,42.70
2023-02-11T08:46:45.005Z,42.42
2023-02-11T08:49:11.500Z,42.83
2023-02-11T08:51:37.920Z,42.82
2023-02-11T08:54:04.281Z,42.29
2023-02-11T08:56:30.635Z,42.39
2023-02-11T08:58:56.977Z,42.64
2023-02-11T09:01:23.399Z,41.79
2023-02-11T09:03:49.780Z,42.20
2023-02-11T09:06:16.178Z,43.20
2023-02-11T09:08:45.316Z,44.04
2023-02-11T09:11:12.629Z,43.76
2023-02-11T09:13:39.016Z,44.08
2023-02-11T09:16:05.385Z,44.84
2023-02-11T09:18:31.785Z,44.79
2023-02-11T09:20:58.149Z,46.02
2023-02-11T09:23:24.534Z,45.89
2023-02-11T09:25:51.171Z,46.11
2023-02-11T09:28:17.732Z,46.56
2023-02-11T09:30:44.231Z,47.28
2023-02-11T09:33:10.654Z,48.02
2023-02-11T09:35:39.358Z,48.79
2023-02-11T09:38:05.767Z,48.52
2023-02-11T09:40:32.130Z,47.11
2023-02-11T09:43:03.008Z,46.97
2023-02-11T09:45:30.508Z,48.01
2023-02-11T09:47:56.913Z,47.07
2023-02-11T09:50:23.267Z,44.49
2023-02-11T09:52:49.713Z,44.59
2023-02-11T09:55:16.136Z,44.96
2023-02-11T09:57:42.542Z,43.88
2023-02-11T10:00:08.942Z,46.00
2023-02-11T10:02:35.336Z,46.05
2023-02-11T10:05:01.740Z,46.89
2023-02-11T10:07:28.151Z,44.05
2023-02-11T10:09:54.560Z,44.44
2023-02-11T10:12:20.922Z,46.53
2023-02-11T10:14:47.325Z,46.44
2023-02-11T10:17:13.732Z,46.60
2023-02-11T10:19:40.115Z,46.86
2023-02-11T10:22:06.695Z,45.33
2023-02-11T10:24:33.050Z,44.53
2023-02-11T10:26:59.440Z,44.83
2023-02-11T10:29:25.803Z,43.73
2023-02-11T10:31:52.226Z,44.79
2023-02-11T10:34:18.636Z,45.85
2023-02-11T10:36:44.993Z,45.22
2023-02-11T10:39:11.385Z,45.06
2023-02-11T10:41:37.783Z,44.35
2023-02-11T10:44:04.193Z,43.69
2023-02-11T10:46:30.650Z,43.43
2023-02-11T10:48:57.074Z,44.41
2023-02-11T10:51:23.587Z,43.16
2023-02-11T10:53:49.969Z,43.41
2023-02-11T10:56:16.361Z,43.73
2023-02-11T10:58:42.903Z,43.50
2023-02-11T11:01:23.515Z,42.52
2023-02-11T11:03:50.913Z,42.97
2023-02-11T11:06:17.299Z,43.76
2023-02-11T11:08:43.660Z,43.54
2023-02-11T11:11:10.109Z,43.87
2023-02-11T11:13:36.521Z,43.56
2023-02-11T11:16:02.985Z,42.48
2023-02-11T11:18:29.401Z,41.40
2023-02-11T11:20:55.751Z,42.40
2023-02-11T11:23:22.133Z,43.09
2023-02-11T11:25:48.489Z,43.30
2023-02-11T11:28:14.902Z,43.76
2023-02-11T11:30:41.385Z,43.31
2023-02-11T11:33:07.774Z,43.35
2023-02-11T11:35:34.119Z,43.25
2023-02-11T11:38:01.956Z,43.91
2023-02-11T11:40:28.541Z,43.19
2023-02-11T11:42:54.908Z,43.51
2023-02-11T11:45:21.289Z,43.76
2023-02-11T11:47:47.684Z,43.92
2023-02-11T11:50:14.045Z,43.07
2023-02-11T11:52:40.443Z,43.44
2023-02-11T11:55:06.870Z,44.57
2023-02-11T11:57:33.241Z,43.31
2023-02-11T11:59:59.636Z,44.37
2023-02-11T12:02:26.150Z,43.23
2023-02-11T12:04:52.532Z,43.36
2023-02-11T12:07:18.884Z,41.75
2023-02-11T12:09:45.249Z,42.25
2023-02-11T12:12:11.650Z,43.66
2023-02-11T12:14:38.016Z,43.48
2023-02-11T12:17:04.363Z,42.94
2023-02-11T12:19:30.717Z,42.83
2023-02-11T12:21:57.110Z,43.33
2023-02-11T12:24:23.513Z,42.57
2023-02-11T12:26:49.974Z,43.43
2023-02-11T12:29:16.330Z,44.17
2023-02-11T12:31:42.691Z,43.12
2023-02-11T12:34:09.085Z,42.77
2023-02-11T12:36:35.477Z,42.29
2023-02-11T12:39:01.885Z,42.43
2023-02-11T12:41:28.264Z,42.82
2023-02-11T12:43:54.654Z,42.53
2023-02-11T12:46:21.155Z,42.57
2023-02-11T12:48:47.611Z,43.73
2023-02-11T12:51:13.979Z,43.63
2023-02-11T12:53:40.346Z,41.57
2023-02-11T12:56:06.819Z,41.87
2023-02-11T12:58:44.650Z,42.72
2023-02-11T13:01:12.059Z,42.25
2023-02-11T13:03:38.452Z,43.08
2023-02-11T13:06:04.807Z,42.99
2023-02-11T13:08:31.232Z,43.04
2023-02-11T13:10:57.584Z,42.83
2023-02-11T13:13:24.005Z,43.85
2023-02-11T13:15:50.368Z,42.75
2023-02-11T13:18:19.015Z,42.55
2023-02-11T13:20:45.592Z,42.16
2023-02-11T13:23:11.948Z,40.65
2023-02-11T13:25:38.294Z,40.72
2023-02-11T13:28:04.698Z,41.24
2023-02-11T13:30:31.104Z,40.21
2023-02-11T13:32:57.485Z,40.53
2023-02-11T13:35:23.841Z,39.21
2023-02-11T13:37:50.233Z,40.67
2023-02-11T13:40:16.601Z,39.82
2023-02-11T13:42:45.518Z,43.54
2023-02-11T13:45:11.908Z,39.78
2023-02-11T13:47:38.323Z,38.30
2023-02-11T13:50:04.708Z,36.94
2023-02-11T13:52:31.100Z,37.33
2023-02-11T13:54:57.459Z,38.08
2023-02-11T13:57:23.861Z,37.45
2023-02-11T13:59:50.224Z,36.65
2023-02-11T14:02:16.622Z,36.54
2023-02-11T14:04:43.074Z,36.18
2023-02-11T14:07:09.476Z,35.77
2023-02-11T14:09:35.887Z,36.03
2023-02-11T14:12:02.262Z,35.59
2023-02-11T14:14:28.660Z,36.24
2023-02-11T14:16:55.095Z,34.70
2023-02-11T14:19:21.504Z,35.43
2023-02-11T14:21:47.847Z,36.41
2023-02-11T14:24:14.233Z,34.84
2023-02-11T14:26:40.741Z,35.05
2023-02-11T14:29:07.129Z,34.37
2023-02-11T14:31:33.635Z,33.21
2023-02-11T14:34:00.125Z,32.90
2023-02-11T14:36:26.513Z,33.06
2023-02-11T14:38:52.921Z,32.79
2023-02-11T14:41:19.328Z,33.35
2023-02-11T14:43:45.731Z,32.11
2023-02-11T14:46:12.126Z,32.69
2023-02-11T14:48:38.518Z,32.39
2023-02-11T14:51:04.950Z,32.79
2023-02-11T14:53:31.320Z,33.20
2023-02-11T14:55:57.776Z,32.35
2023-02-11T14:58:24.198Z,32.27
2023-02-11T15:00:50.789Z,32.54
2023-02-11T15:03:17.384Z,31.45
2023-02-11T15:05:43.773Z,30.93
2023-02-11T15:08:10.163Z,31.06
2023-02-11T15:10:36.604Z,31.19
2023-02-11T15:13:03.032Z,31.63
2023-02-11T15:15:29.408Z,31.37
2023-02-11T15:17:55.767Z,30.54
2023-02-11T15:20:22.158Z,29.52
2023-02-11T15:22:48.523Z,30.23
2023-02-11T15:25:14.942Z,30.51
2023-02-11T15:27:41.333Z,28.24
2023-02-11T15:30:07.718Z,28.46
2023-02-11T15:32:34.168Z,28.23
2023-02-11T15:35:00.621Z,29.22
2023-02-11T15:37:26.984Z,27.91
2023-02-11T15:39:53.397Z,27.85
2023-02-11T15:42:19.805Z,28.17
2023-02-11T15:44:46.537Z,28.78
2023-02-11T15:47:14.366Z,27.97
2023-02-11T15:49:40.753Z,28.15
2023-02-11T15:52:07.353Z,27.79
2023-02-11T15:54:33.716Z,26.52
2023-02-11T15:57:00.152Z,25.82
2023-02-11T15:59:26.546Z,26.27
2023-02-11T16:01:52.949Z,24.47
2023-02-11T16:04:19.364Z,24.12
2023-02-11T16:06:45.820Z,24.14
2023-02-11T16:09:12.172Z,23.66
2023-02-11T16:11:38.564Z,24.81
2023-02-11T16:14:07.021Z,24.29
2023-02-11T16:16:33.628Z,24.64
2023-02-11T16:19:05.296Z,26.47
2023-02-11T16:21:32.266Z,26.86
2023-02-11T16:23:58.672Z,26.93
2023-02-11T16:26:25.046Z,26.07
2023-02-11T16:28:51.437Z,25.95
2023-02-11T16:31:17.864Z,25.68
2023-02-11T16:33:44.267Z,27.16
2023-02-11T16:36:10.659Z,25.43
2023-02-11T16:38:37.081Z,26.66
2023-02-11T16:41:03.482Z,28.43
2023-02-11T16:43:29.848Z,27.13
2023-02-11T16:45:56.175Z,26.56
2023-02-11T16:48:22.682Z,26.69
2023-02-11T16:50:51.483Z,26.25
2023-02-11T16:53:19.601Z,28.17
2023-02-11T16:55:45.998Z,28.63
2023-02-11T16:58:12.376Z,27.87
2023-02-11T17:00:38.849Z,29.35
2023-02-11T17:03:05.296Z,28.81
2023-02-11T17:05:37.840Z,28.85
2023-02-11T17:08:09.179Z,27.64
2023-02-11T17:10:35.589Z,27.88
2023-02-11T17:13:01.971Z,29.18
2023-02-11T17:15:28.318Z,28.54
2023-02-11T17:17:54.745Z,28.47
2023-02-11T17:20:21.144Z,28.30
2023-02-11T17:22:47.547Z,27.89
2023-02-11T17:25:13.947Z,26.99
2023-02-11T17:27:40.351Z,27.82
2023-02-11T17:30:06.756Z,28.24
2023-02-11T17:32:33.112Z,30.07
2023-02-11T17:34:59.513Z,29.67
2023-02-11T17:37:26.019Z,31.14
2023-02-11T17:39:52.372Z,31.25
2023-02-11T17:42:18.723Z,29.28
2023-02-11T17:44:45.116Z,26.88
2023-02-11T17:47:11.492Z,28.08
2023-02-11T17:49:37.876Z,30.45
2023-02-11T17:52:04.239Z,30.87
2023-02-11T17:54:30.666Z,30.88
2023-02-11T17:56:58.460Z,32.34
2023-02-11T17:59:25.039Z,32.03
2023-02-11T18:01:51.443Z,31.66
2023-02-11T18:04:17.992Z,31.11
2023-02-11T18:06:44.458Z,29.69
2023-02-11T18:09:10.807Z,30.80
2023-02-11T18:11:37.206Z,31.73
2023-02-11T18:14:03.608Z,32.82
2023-02-11T18:16:30.062Z,34.06
2023-02-11T18:18:56.476Z,33.78
2023-02-11T18:21:22.904Z,32.64
2023-02-11T18:23:49.268Z,32.10
2023-02-11T18:26:15.661Z,35.61
2023-02-11T18:28:45.306Z,37.22
2023-02-11T18:31:12.327Z,38.23
2023-02-11T18:33:38.704Z,38.13
2023-02-11T18:36:05.133Z,34.59
2023-02-11T18:38:31.497Z,33.48
2023-02-11T18:40:57.858Z,34.53
2023-02-11T18:43:24.246Z,33.90
2023-02-11T18:45:51.177Z,32.83
2023-02-11T18:48:17.813Z,31.63
2023-02-11T18:50:44.169Z,31.66
2023-02-11T18:53:10.525Z,31.45
2023-02-11T18:55:36.866Z,31.48
2023-02-11T18:58:03.269Z,30.47
2023-02-11T19:00:29.623Z,31.01
2023-02-11T19:02:55.968Z,31.45
2023-02-11T19:05:22.366Z,30.90
2023-02-11T19:07:48.762Z,31.24
2023-02-11T19:10:15.360Z,32.37
2023-02-11T19:12:41.791Z,35.00
2023-02-11T19:15:08.147Z,34.54
2023-02-11T19:17:34.498Z,33.21
2023-02-11T19:20:00.838Z,33.80
2023-02-11T19:22:27.191Z,36.09
2023-02-11T19:24:53.539Z,36.43
2023-02-11T19:27:19.885Z,39.03
2023-02-11T19:29:46.266Z,38.10
2023-02-11T19:32:12.675Z,39.13
2023-02-11T19:34:39.035Z,39.26
2023-02-11T19:37:05.426Z,38.08
2023-02-11T19:39:31.781Z,38.50
2023-02-11T19:41:58.155Z,37.66
2023-02-11T19:44:24.507Z,38.26
2023-02-11T19:46:50.896Z,39.82
2023-02-11T19:49:17.255Z,40.25
2023-02-11T19:51:43.617Z,39.44
2023-02-11T19:54:10.032Z,44.02
2023-02-11T19:56:36.399Z,39.69
2023-02-11T19:59:02.748Z,40.55
2023-02-11T20:01:29.208Z,43.57
2023-02-11T20:03:55.651Z,43.97
2023-02-11T20:06:22.057Z,46.67
2023-02-11T20:08:48.456Z,49.37
2023-02-11T20:11:14.857Z,52.61
2023-02-11T20:13:41.218Z,53.06
2023-02-11T20:16:07.633Z,49.78
2023-02-11T20:18:34.025Z,48.50
2023-02-11T20:21:00.387Z,44.05
2023-02-11T20:23:26.737Z,45.66
2023-02-11T20:25:53.439Z,54.29
2023-02-11T20:28:20.084Z,45.47
2023-02-11T20:30:46.528Z,47.13
2023-02-11T20:33:12.987Z,43.90
2023-02-11T20:35:39.334Z,39.67
2023-02-11T20:38:05.716Z,43.17
2023-02-11T20:40:32.104Z,45.40
2023-02-11T20:42:58.461Z,60.66
2023-02-11T20:45:24.844Z,54.61
2023-02-11T20:47:51.202Z,50.28
2023-02-11T20:50:17.546Z,45.90
2023-02-11T20:52:43.948Z,44.17
2023-02-11T20:55:10.369Z,38.19
2023-02-11T20:57:36.780Z,38.64
2023-02-11T21:00:03.231Z,42.96
2023-02-11T21:02:29.591Z,39.11
2023-02-11T21:04:55.973Z,39.48
2023-02-11T21:07:22.376Z,38.78
2023-02-11T21:09:48.743Z,37.63
2023-02-11T21:12:15.121Z,37.47
2023-02-11T21:14:41.486Z,33.88
2023-02-11T21:17:07.831Z,33.89
2023-02-11T21:19:34.191Z,35.22
2023-02-11T21:22:00.542Z,35.42
2023-02-11T21:24:26.938Z,33.63
2023-02-11T21:26:53.308Z,33.66
2023-02-11T21:29:19.720Z,34.40
2023-02-11T21:31:46.135Z,34.86
2023-02-11T21:34:12.564Z,35.42
2023-02-11T21:36:39.102Z,33.98
2023-02-11T21:39:05.473Z,34.39
2023-02-11T21:41:31.874Z,35.57
2023-02-11T21:43:58.287Z,35.25
2023-02-11T21:46:24.727Z,35.14
2023-02-11T21:48:51.103Z,36.71
2023-02-11T21:51:17.483Z,36.92
2023-02-11T21:53:43.813Z,35.02
2023-02-11T21:56:10.166Z,36.38
2023-02-11T21:58:36.558Z,36.05
2023-02-11T22:01:03.015Z,35.45
2023-02-11T22:03:29.406Z,34.28
2023-02-11T22:05:56.114Z,35.20
2023-02-11T22:08:22.650Z,36.34
2023-02-11T22:10:49.002Z,37.08
2023-02-11T22:13:15.359Z,34.72
2023-02-11T22:15:41.757Z,37.82
2023-02-11T22:18:08.124Z,36.09
2023-02-11T22:20:34.508Z,33.34
2023-02-11T22:23:00.907Z,31.33
2023-02-11T22:25:27.314Z,30.30
2023-02-11T22:27:53.701Z,28.85
2023-02-11T22:30:20.097Z,26.91
2023-02-11T22:32:46.499Z,26.16
2023-02-11T22:35:12.959Z,24.90
2023-02-11T22:37:39.355Z,25.48
2023-02-11T22:40:05.705Z,26.16
2023-02-11T22:42:32.069Z,25.93
2023-02-11T22:44:58.407Z,25.47
2023-02-11T22:47:24.827Z,25.56
2023-02-11T22:49:51.233Z,25.80
2023-02-11T22:52:17.636Z,26.08
2023-02-11T22:54:44.000Z,26.29
2023-02-11T22:57:10.394Z,25.37
2023-02-11T22:59:36.776Z,25.40
2023-02-11T23:02:03.285Z,25.72
2023-02-11T23:04:29.748Z,26.00
2023-02-11T23:06:56.102Z,25.35
2023-02-11T23:09:22.514Z,25.65
2023-02-11T23:11:48.902Z,26.98
2023-02-11T23:14:15.294Z,27.23
2023-02-11T23:16:41.780Z,26.43
2023-02-11T23:19:08.199Z,27.26
2023-02-11T23:21:34.588Z,26.23
2023-02-11T23:24:00.971Z,25.87
2023-02-11T23:26:27.354Z,25.01
2023-02-11T23:28:53.690Z,25.48
2023-02-11T23:31:20.113Z,27.23
2023-02-11T23:33:46.544Z,26.99
2023-02-11T23:36:12.895Z,25.77
2023-02-11T23:38:39.252Z,25.95
2023-02-11T23:41:05.610Z,26.63
2023-02-11T23:43:31.997Z,25.83
2023-02-11T23:45:58.493Z,25.11
2023-02-11T23:48:25.023Z,23.51
2023-02-11T23:50:51.416Z,23.61
2023-02-11T23:53:17.844Z,23.75
2023-02-11T23:55:44.247Z,23.97
2023-02-11T23:58:10.592Z,24.81
